Time;durP1;ratioP1;P1;durP2;ratioP2;P2;SDS_P1;SDS_P2;PMS_P1;PMS_P2;Temp;Humidity;BMP_temperature;BMP_pressure;BME280_temperature;BME280_humidity;BME280_pressure;Samples;Min_cycle;Max_cycle;Signal;HPM_P1;HPM_P2
2023/03/06 00:01:12;;;;;;;;;;;19.30;40.80;;;;;;5111731;28;19920;-59
2023/03/06 00:03:40;;;;;;;;;;;19.30;40.70;;;;;;5112454;28;19924;-60
2023/03/06 00:06:07;;;;;;;;;;;19.30;40.80;;;;;;5112401;28;19920;-59
2023/03/06 00:08:34;;;;;;;;;;;19.30;40.70;;;;;;5110824;27;20364;-60
2023/03/06 00:11:06;;;;;;;;;;;19.30;40.70;;;;;;5110479;28;19927;-60
2023/03/06 00:13:33;;;;;;;;;;;19.30;40.70;;;;;;5108276;27;19924;-59
2023/03/06 00:16:03;;;;;;;;;;;19.30;40.70;;;;;;5134766;27;19927;-60
2023/03/06 00:18:30;;;;;;;;;;;19.30;40.70;;;;;;5129734;27;19924;-59
2023/03/06 00:20:58;;;;;;;;;;;19.30;40.70;;;;;;5137117;27;19927;-59
2023/03/06 00:23:26;;;;;;;;;;;19.30;40.70;;;;;;5105645;28;19978;-60
2023/03/06 00:25:53;;;;;;;;;;;19.30;40.70;;;;;;5111093;28;19926;-60
2023/03/06 00:28:20;;;;;;;;;;;19.30;40.70;;;;;;5112634;28;19923;-59
2023/03/06 00:30:47;;;;;;;;;;;19.30;40.70;;;;;;5105839;28;19927;-61
2023/03/06 00:33:13;;;;;;;;;;;19.30;40.70;;;;;;5112280;28;19973;-61
2023/03/06 00:35:40;;;;;;;;;;;19.30;40.70;;;;;;5112527;28;19927;-60
2023/03/06 00:38:09;;;;;;;;;;;19.30;40.70;;;;;;5109933;28;20040;-60
2023/03/06 00:40:36;;;;;;;;;;;19.30;40.70;;;;;;5136774;27;19934;-61
2023/03/06 00:43:03;;;;;;;;;;;19.30;40.60;;;;;;5110641;28;19928;-61
2023/03/06 00:45:30;;;;;;;;;;;19.30;40.60;;;;;;5112076;28;19920;-60
2023/03/06 00:47:56;;;;;;;;;;;19.30;40.60;;;;;;5109739;28;19931;-60
2023/03/06 00:50:23;;;;;;;;;;;19.30;40.60;;;;;;5109184;28;19973;-61
2023/03/06 00:52:51;;;;;;;;;;;19.30;40.60;;;;;;5107692;28;19927;-60
2023/03/06 00:55:19;;;;;;;;;;;19.30;41.20;;;;;;5110039;28;19919;-60
2023/03/06 00:57:46;;;;;;;;;;;19.30;40.60;;;;;;5111182;27;20006;-61
2023/03/06 01:00:13;;;;;;;;;;;19.30;40.60;;;;;;5108731;28;19924;-61
2023/03/06 01:02:40;;;;;;;;;;;19.30;40.60;;;;;;5106882;28;19924;-61
2023/03/06 01:05:07;;;;;;;;;;;19.30;40.60;;;;;;5109746;28;19928;-61
2023/03/06 01:07:35;;;;;;;;;;;19.30;40.60;;;;;;5113081;27;19927;-61
2023/03/06 01:10:02;;;;;;;;;;;19.30;40.60;;;;;;5108051;28;19920;-60
2023/03/06 01:12:30;;;;;;;;;;;19.30;40.60;;;;;;5109922;28;20358;-61
2023/03/06 01:15:00;;;;;;;;;;;19.30;40.50;;;;;;5109729;28;20032;-62
2023/03/06 01:17:27;;;;;;;;;;;19.30;41.10;;;;;;5109442;28;19928;-62
2023/03/06 01:19:54;;;;;;;;;;;19.20;40.50;;;;;;5107782;28;19920;-61
2023/03/06 01:22:21;;;;;;;;;;;19.20;40.50;;;;;;5109984;28;19980;-60
2023/03/06 01:24:47;;;;;;;;;;;19.30;40.50;;;;;;5111102;28;19928;-61
2023/03/06 01:27:14;;;;;;;;;;;19.30;40.50;;;;;;5109941;28;19947;-61
2023/03/06 01:29:42;;;;;;;;;;;19.20;40.40;;;;;;5108881;28;19928;-59
2023/03/06 01:32:09;;;;;;;;;;;19.20;40.40;;;;;;5108767;28;20315;-60
2023/03/06 01:34:36;;;;;;;;;;;19.30;40.50;;;;;;5111084;28;20368;-60
2023/03/06 01:37:03;;;;;;;;;;;19.20;40.40;;;;;;5106369;28;19924;-60
2023/03/06 01:39:30;;;;;;;;;;;19.20;40.40;;;;;;5109396;28;19927;-59
2023/03/06 01:41:57;;;;;;;;;;;19.20;40.40;;;;;;5135274;27;19924;-62
2023/03/06 01:44:24;;;;;;;;;;;19.30;40.40;;;;;;5109388;28;19944;-60
2023/03/06 01:46:52;;;;;;;;;;;19.30;40.40;;;;;;5135363;27;19920;-60
2023/03/06 01:49:19;;;;;;;;;;;19.20;40.40;;;;;;5103875;28;19969;-60
2023/03/06 01:51:48;;;;;;;;;;;19.20;40.30;;;;;;5110961;28;20048;-60
2023/03/06 01:54:15;;;;;;;;;;;19.20;40.30;;;;;;5107416;28;19969;-60
2023/03/06 01:56:42;;;;;;;;;;;19.20;40.90;;;;;;5110765;28;19919;-60
2023/03/06 01:59:09;;;;;;;;;;;19.20;40.30;;;;;;5110435;28;20393;-59
2023/03/06 02:01:35;;;;;;;;;;;19.20;40.30;;;;;;5109442;28;19973;-60
2023/03/06 02:04:04;;;;;;;;;;;19.20;40.30;;;;;;5110678;28;19931;-61
2023/03/06 02:06:30;;;;;;;;;;;19.20;40.30;;;;;;5106662;28;19969;-61
2023/03/06 02:08:57;;;;;;;;;;;19.20;40.80;;;;;;5107889;28;19927;-60
2023/03/06 02:11:24;;;;;;;;;;;19.20;40.20;;;;;;5106563;28;19926;-60
2023/03/06 02:13:51;;;;;;;;;;;19.20;40.30;;;;;;5108936;28;20281;-61
2023/03/06 02:16:19;;;;;;;;;;;19.20;40.20;;;;;;5132010;27;19920;-59
2023/03/06 02:18:46;;;;;;;;;;;19.20;40.20;;;;;;5110005;28;19919;-60
2023/03/06 02:21:19;;;;;;;;;;;19.20;40.20;;;;;;5108339;28;19926;-59
2023/03/06 02:23:48;;;;;;;;;;;19.20;40.20;;;;;;5134600;27;19927;-59
2023/03/06 02:26:16;;;;;;;;;;;19.20;40.20;;;;;;5109055;28;20447;-59
2023/03/06 02:28:43;;;;;;;;;;;19.20;40.20;;;;;;5107793;28;19924;-61
2023/03/06 02:31:10;;;;;;;;;;;19.20;40.20;;;;;;5107849;28;19950;-60
2023/03/06 02:33:37;;;;;;;;;;;19.20;40.20;;;;;;5108384;28;19965;-60
2023/03/06 02:36:04;;;;;;;;;;;19.20;40.20;;;;;;5108644;28;19931;-61
2023/03/06 02:38:32;;;;;;;;;;;19.20;40.20;;;;;;5110415;28;20378;-60
2023/03/06 02:40:58;;;;;;;;;;;19.20;40.20;;;;;;5089603;28;19924;-61
2023/03/06 02:43:28;;;;;;;;;;;19.20;40.10;;;;;;5128339;27;19992;-61
2023/03/06 02:45:55;;;;;;;;;;;19.20;40.10;;;;;;5134721;27;19934;-59
2023/03/06 02:48:21;;;;;;;;;;;19.20;40.20;;;;;;5111405;28;19923;-59
2023/03/06 02:50:48;;;;;;;;;;;19.20;40.10;;;;;;5107078;28;19931;-60
2023/03/06 02:53:15;;;;;;;;;;;19.20;40.10;;;;;;5108437;28;19923;-59
2023/03/06 02:55:42;;;;;;;;;;;19.20;40.10;;;;;;5108596;28;19969;-60
2023/03/06 02:58:09;;;;;;;;;;;19.20;40.10;;;;;;5107716;28;19923;-59
2023/03/06 03:00:37;;;;;;;;;;;19.20;40.10;;;;;;5108838;28;19928;-58
2023/03/06 03:03:04;;;;;;;;;;;19.20;40.10;;;;;;5108318;28;19974;-60
2023/03/06 03:05:31;;;;;;;;;;;19.20;40.10;;;;;;5108771;28;20384;-59
2023/03/06 03:07:57;;;;;;;;;;;19.20;40.10;;;;;;5108294;28;19920;-59
2023/03/06 03:10:24;;;;;;;;;;;19.20;40.10;;;;;;5109076;28;19924;-59
2023/03/06 03:12:51;;;;;;;;;;;19.20;40.10;;;;;;5107531;28;19931;-59
2023/03/06 03:15:18;;;;;;;;;;;19.20;40.00;;;;;;5107818;28;20099;-60
2023/03/06 03:17:46;;;;;;;;;;;19.20;40.00;;;;;;5113450;28;19985;-60
2023/03/06 03:20:15;;;;;;;;;;;19.20;40.00;;;;;;5110763;28;19931;-60
2023/03/06 03:22:41;;;;;;;;;;;19.20;40.00;;;;;;5112070;27;19923;-60
2023/03/06 03:25:08;;;;;;;;;;;19.20;40.00;;;;;;5112173;28;19919;-60
2023/03/06 03:27:35;;;;;;;;;;;19.20;40.00;;;;;;5111276;28;19924;-60
2023/03/06 03:30:03;;;;;;;;;;;19.20;40.00;;;;;;5112444;28;20417;-60
2023/03/06 03:32:30;;;;;;;;;;;19.20;40.00;;;;;;5098757;28;19955;-59
2023/03/06 03:34:58;;;;;;;;;;;19.20;40.00;;;;;;5111929;27;19924;-60
2023/03/06 03:37:24;;;;;;;;;;;19.20;40.00;;;;;;5104338;28;19924;-60
2023/03/06 03:39:51;;;;;;;;;;;19.20;40.00;;;;;;5111629;28;19924;-58
2023/03/06 03:42:18;;;;;;;;;;;19.20;40.00;;;;;;5111490;28;19924;-61
2023/03/06 03:44:45;;;;;;;;;;;19.20;40.00;;;;;;5111154;28;19928;-62
2023/03/06 03:47:11;;;;;;;;;;;19.20;40.00;;;;;;5108253;28;19924;-59
2023/03/06 03:49:39;;;;;;;;;;;19.20;40.00;;;;;;5110928;28;20012;-60
2023/03/06 03:52:07;;;;;;;;;;;19.20;40.00;;;;;;5111656;28;19919;-62
2023/03/06 03:54:34;;;;;;;;;;;19.20;40.00;;;;;;5111990;27;19919;-61
2023/03/06 03:57:01;;;;;;;;;;;19.10;39.80;;;;;;5128600;27;20305;-60
2023/03/06 03:59:27;;;;;;;;;;;19.20;39.90;;;;;;5112119;28;19969;-60
2023/03/06 04:01:54;;;;;;;;;;;19.10;39.80;;;;;;5112153;28;19924;-61
2023/03/06 04:04:21;;;;;;;;;;;19.20;39.90;;;;;;5116298;27;19924;-61
2023/03/06 04:06:48;;;;;;;;;;;19.20;39.90;;;;;;5111682;28;19959;-63
2023/03/06 04:09:16;;;;;;;;;;;19.20;39.90;;;;;;5110180;28;19939;-60
2023/03/06 04:11:43;;;;;;;;;;;19.20;39.90;;;;;;5113034;28;20243;-61
2023/03/06 04:14:10;;;;;;;;;;;19.10;39.80;;;;;;5111193;28;19924;-61
2023/03/06 04:16:36;;;;;;;;;;;19.20;39.90;;;;;;5107894;28;19971;-60
2023/03/06 04:19:03;;;;;;;;;;;19.20;39.90;;;;;;5107917;27;19923;-60
2023/03/06 04:21:30;;;;;;;;;;;19.20;39.80;;;;;;5111952;28;19976;-60
2023/03/06 04:23:57;;;;;;;;;;;19.20;39.80;;;;;;5108552;28;19924;-62
2023/03/06 04:26:25;;;;;;;;;;;19.20;39.80;;;;;;5110741;28;20022;-61
2023/03/06 04:28:52;;;;;;;;;;;19.20;39.90;;;;;;5110804;28;19920;-62
2023/03/06 04:31:18;;;;;;;;;;;19.20;39.80;;;;;;5110686;28;19927;-62
2023/03/06 04:33:45;;;;;;;;;;;19.10;39.70;;;;;;5110695;28;19928;-60
2023/03/06 04:36:12;;;;;;;;;;;19.20;39.80;;;;;;5112261;28;19924;-60
2023/03/06 04:38:39;;;;;;;;;;;19.20;39.80;;;;;;5105588;28;19977;-61
2023/03/06 04:41:06;;;;;;;;;;;19.20;39.80;;;;;;5111844;27;19927;-62
2023/03/06 04:43:34;;;;;;;;;;;19.20;39.80;;;;;;5110726;28;19920;-61
2023/03/06 04:46:01;;;;;;;;;;;19.20;39.80;;;;;;5105474;28;20361;-61
2023/03/06 04:48:27;;;;;;;;;;;19.20;39.80;;;;;;5109921;28;19976;-61
2023/03/06 04:50:54;;;;;;;;;;;19.20;39.70;;;;;;5110124;28;19923;-62
2023/03/06 04:53:21;;;;;;;;;;;19.20;39.70;;;;;;5110187;27;19968;-60
2023/03/06 04:55:48;;;;;;;;;;;19.20;39.70;;;;;;5112188;27;19920;-61
2023/03/06 04:58:14;;;;;;;;;;;19.10;39.60;;;;;;5108286;28;19920;-61
2023/03/06 05:00:42;;;;;;;;;;;19.10;39.60;;;;;;5115223;27;20372;-62
2023/03/06 05:03:09;;;;;;;;;;;19.10;39.60;;;;;;5135919;27;19932;-62
2023/03/06 05:05:36;;;;;;;;;;;19.10;39.60;;;;;;5110385;27;19967;-61
2023/03/06 05:08:03;;;;;;;;;;;19.10;39.60;;;;;;5108501;28;19920;-61
2023/03/06 05:10:29;;;;;;;;;;;19.10;39.60;;;;;;5135355;27;19927;-59
2023/03/06 05:12:56;;;;;;;;;;;19.10;39.60;;;;;;5111801;28;19920;-60
2023/03/06 05:15:23;;;;;;;;;;;19.10;39.60;;;;;;5110452;28;19920;-60
2023/03/06 05:17:51;;;;;;;;;;;19.10;39.60;;;;;;5107298;28;19939;-61
2023/03/06 05:20:18;;;;;;;;;;;19.10;39.60;;;;;;5111019;28;19920;-59
2023/03/06 05:22:45;;;;;;;;;;;19.20;39.60;;;;;;5109626;28;20030;-60
2023/03/06 05:25:12;;;;;;;;;;;19.10;39.50;;;;;;5109842;28;19931;-60
2023/03/06 05:27:38;;;;;;;;;;;19.10;39.50;;;;;;5110497;28;19923;-60
2023/03/06 05:30:06;;;;;;;;;;;19.10;39.50;;;;;;5116819;27;19920;-60
2023/03/06 05:32:32;;;;;;;;;;;19.10;39.50;;;;;;5109367;28;19919;-60
2023/03/06 05:35:00;;;;;;;;;;;19.10;39.50;;;;;;5109695;27;19969;-60
2023/03/06 05:37:28;;;;;;;;;;;19.10;39.50;;;;;;5107866;28;19982;-61
2023/03/06 05:39:54;;;;;;;;;;;19.10;39.40;;;;;;5109855;27;19924;-59
2023/03/06 05:42:21;;;;;;;;;;;19.10;39.40;;;;;;5108302;28;19923;-59
2023/03/06 05:44:48;;;;;;;;;;;19.10;39.40;;;;;;5110899;28;20262;-60
2023/03/06 05:47:14;;;;;;;;;;;19.10;39.40;;;;;;5108702;28;20794;-60
2023/03/06 05:49:41;;;;;;;;;;;19.10;39.40;;;;;;5111220;27;19923;-59
2023/03/06 05:52:10;;;;;;;;;;;19.10;39.40;;;;;;5111222;28;19923;-61
2023/03/06 05:54:37;;;;;;;;;;;19.10;39.40;;;;;;5110566;28;19931;-60
2023/03/06 05:57:04;;;;;;;;;;;19.10;39.40;;;;;;5107516;28;19924;-59
2023/03/06 05:59:31;;;;;;;;;;;19.10;39.40;;;;;;5105401;28;19958;-62
2023/03/06 06:01:58;;;;;;;;;;;19.10;39.40;;;;;;5103279;28;19930;-60
2023/03/06 06:04:26;;;;;;;;;;;19.10;39.40;;;;;;5106924;28;19923;-63
2023/03/06 06:06:53;;;;;;;;;;;19.10;39.40;;;;;;5107727;27;20006;-60
2023/03/06 06:09:22;;;;;;;;;;;19.10;39.40;;;;;;5110396;27;19927;-60
2023/03/06 06:11:50;;;;;;;;;;;19.10;39.40;;;;;;5134078;27;19926;-58
2023/03/06 06:14:17;;;;;;;;;;;19.10;39.30;;;;;;5109627;28;19972;-58
2023/03/06 06:16:44;;;;;;;;;;;19.10;39.90;;;;;;5109211;28;19920;-60
2023/03/06 06:19:17;;;;;;;;;;;19.10;39.30;;;;;;5106821;28;19919;-59
2023/03/06 06:21:44;;;;;;;;;;;19.10;39.30;;;;;;5108357;28;19927;-59
2023/03/06 06:24:11;;;;;;;;;;;19.10;39.30;;;;;;5106495;28;21007;-60
2023/03/06 06:26:39;;;;;;;;;;;19.10;39.30;;;;;;5109193;28;19961;-60
2023/03/06 06:29:05;;;;;;;;;;;19.10;39.30;;;;;;5108020;28;20020;-62
2023/03/06 06:31:32;;;;;;;;;;;19.10;39.30;;;;;;5104631;28;19928;-60
2023/03/06 06:33:59;;;;;;;;;;;19.10;39.30;;;;;;5108254;28;19920;-59
2023/03/06 06:36:26;;;;;;;;;;;19.10;39.30;;;;;;5108404;28;19920;-59
2023/03/06 06:38:53;;;;;;;;;;;19.10;39.30;;;;;;5107319;28;19928;-59
2023/03/06 06:41:19;;;;;;;;;;;19.10;39.20;;;;;;5107812;28;19928;-59
2023/03/06 06:43:47;;;;;;;;;;;19.10;39.30;;;;;;5108796;28;19927;-61
2023/03/06 06:46:14;;;;;;;;;;;19.10;39.30;;;;;;5108762;28;19924;-60
2023/03/06 06:48:44;;;;;;;;;;;19.10;39.20;;;;;;5107542;28;19927;-60
2023/03/06 06:51:10;;;;;;;;;;;19.10;39.20;;;;;;5112491;28;20413;-60
2023/03/06 06:53:37;;;;;;;;;;;19.10;39.20;;;;;;5113969;28;19927;-59
2023/03/06 06:56:04;;;;;;;;;;;19.10;39.20;;;;;;5110051;27;20510;-62
2023/03/06 06:58:31;;;;;;;;;;;19.10;39.20;;;;;;5110640;28;19939;-60
2023/03/06 07:01:04;;;;;;;;;;;19.10;39.20;;;;;;5136771;27;19920;-59
2023/03/06 07:03:30;;;;;;;;;;;19.10;39.20;;;;;;5113200;28;19984;-58
2023/03/06 07:05:57;;;;;;;;;;;19.10;39.10;;;;;;5108502;28;19927;-59
2023/03/06 07:08:24;;;;;;;;;;;19.10;39.20;;;;;;5109715;28;19971;-59
2023/03/06 07:10:51;;;;;;;;;;;19.10;39.10;;;;;;5112391;28;19943;-61
2023/03/06 07:13:17;;;;;;;;;;;19.10;39.20;;;;;;5113114;28;19932;-59
2023/03/06 07:15:44;;;;;;;;;;;19.10;39.20;;;;;;5110993;28;19931;-61
2023/03/06 07:18:12;;;;;;;;;;;19.10;39.20;;;;;;5110546;28;19919;-61
2023/03/06 07:20:39;;;;;;;;;;;19.10;39.20;;;;;;5110597;27;19948;-62
2023/03/06 07:23:07;;;;;;;;;;;19.10;39.20;;;;;;5112461;28;19984;-61
2023/03/06 07:25:34;;;;;;;;;;;19.10;39.20;;;;;;5112280;28;19924;-60
2023/03/06 07:28:01;;;;;;;;;;;19.10;39.20;;;;;;5110042;28;19924;-61
2023/03/06 07:30:28;;;;;;;;;;;19.10;39.20;;;;;;5111167;27;20005;-60
2023/03/06 07:32:55;;;;;;;;;;;19.10;39.30;;;;;;5110732;28;19920;-60
2023/03/06 07:35:23;;;;;;;;;;;19.10;39.30;;;;;;5093477;28;20015;-61
2023/03/06 07:37:50;;;;;;;;;;;19.10;39.20;;;;;;5109601;28;19939;-61
2023/03/06 07:40:18;;;;;;;;;;;19.10;39.30;;;;;;5112088;28;19932;-62
2023/03/06 07:42:45;;;;;;;;;;;19.10;39.30;;;;;;5110238;28;19926;-60
2023/03/06 07:45:12;;;;;;;;;;;19.10;39.30;;;;;;5109197;28;19919;-61
2023/03/06 07:47:38;;;;;;;;;;;19.10;39.30;;;;;;5110067;28;20277;-61
2023/03/06 07:50:06;;;;;;;;;;;19.10;39.30;;;;;;5111054;27;19920;-62
2023/03/06 07:52:34;;;;;;;;;;;19.10;39.30;;;;;;5109779;28;20357;-60
2023/03/06 07:55:01;;;;;;;;;;;19.10;39.30;;;;;;5109228;28;19946;-61
2023/03/06 07:57:28;;;;;;;;;;;19.10;39.30;;;;;;5137333;27;19937;-62
2023/03/06 07:59:54;;;;;;;;;;;19.10;39.30;;;;;;5110948;27;19924;-62
2023/03/06 08:02:21;;;;;;;;;;;19.10;39.40;;;;;;5105747;28;19976;-61
2023/03/06 08:04:51;;;;;;;;;;;19.10;39.40;;;;;;5098887;27;19936;-61
2023/03/06 08:07:18;;;;;;;;;;;19.10;39.50;;;;;;5127714;27;19973;-59
2023/03/06 08:09:46;;;;;;;;;;;19.10;39.50;;;;;;5103114;27;20424;-62
2023/03/06 08:12:13;;;;;;;;;;;19.20;39.60;;;;;;5106939;28;20032;-63
2023/03/06 08:14:40;;;;;;;;;;;19.20;39.60;;;;;;5096791;27;19977;-62
2023/03/06 08:17:07;;;;;;;;;;;19.20;39.60;;;;;;5108221;28;19923;-61
2023/03/06 08:19:34;;;;;;;;;;;19.20;39.70;;;;;;5102472;28;20234;-62
2023/03/06 08:22:00;;;;;;;;;;;19.20;39.70;;;;;;5095735;28;19970;-61
2023/03/06 08:24:27;;;;;;;;;;;19.20;39.70;;;;;;5095741;28;19973;-62
2023/03/06 08:26:55;;;;;;;;;;;19.20;39.70;;;;;;5107929;27;19928;-61
2023/03/06 08:29:22;;;;;;;;;;;19.20;39.70;;;;;;5106352;28;20056;-61
2023/03/06 08:31:52;;;;;;;;;;;19.20;39.80;;;;;;5104256;27;19920;-62
2023/03/06 08:34:19;;;;;;;;;;;19.20;39.80;;;;;;5106586;28;19920;-61
2023/03/06 08:36:45;;;;;;;;;;;19.20;39.80;;;;;;5109674;27;19985;-60
2023/03/06 08:39:12;;;;;;;;;;;19.30;40.20;;;;;;5107005;28;19985;-61
2023/03/06 08:41:40;;;;;;;;;;;19.30;39.90;;;;;;5106665;27;19924;-61
2023/03/06 08:44:09;;;;;;;;;;;19.30;39.90;;;;;;5106901;28;19926;-62
2023/03/06 08:46:35;;;;;;;;;;;19.30;39.90;;;;;;5108719;28;19963;-63
2023/03/06 08:49:02;;;;;;;;;;;19.20;39.80;;;;;;5105288;28;19924;-62
2023/03/06 08:51:29;;;;;;;;;;;19.30;39.90;;;;;;5104469;28;19920;-62
2023/03/06 08:53:56;;;;;;;;;;;19.30;39.90;;;;;;5106804;28;19965;-61
2023/03/06 08:56:23;;;;;;;;;;;19.30;39.90;;;;;;5108659;28;19919;-62
2023/03/06 08:58:53;;;;;;;;;;;19.30;40.00;;;;;;5105217;28;19924;-62
2023/03/06 09:01:21;;;;;;;;;;;19.30;40.00;;;;;;5133146;27;19984;-62
2023/03/06 09:03:48;;;;;;;;;;;19.30;40.00;;;;;;5103453;28;19963;-63
2023/03/06 09:06:14;;;;;;;;;;;19.30;40.00;;;;;;5108699;27;19923;-63
2023/03/06 09:08:43;;;;;;;;;;;19.40;40.10;;;;;;5133525;27;19966;-62
2023/03/06 09:11:10;;;;;;;;;;;19.40;40.10;;;;;;5104891;28;19924;-63
2023/03/06 09:13:37;;;;;;;;;;;19.30;40.00;;;;;;5108060;28;19981;-63
2023/03/06 09:16:03;;;;;;;;;;;19.30;40.00;;;;;;5134022;27;19923;-63
2023/03/06 09:18:31;;;;;;;;;;;19.40;40.20;;;;;;5105847;28;19923;-60
2023/03/06 09:20:58;;;;;;;;;;;19.40;40.20;;;;;;5103620;28;20010;-61
2023/03/06 09:23:25;;;;;;;;;;;19.40;40.20;;;;;;5107432;28;19932;-62
2023/03/06 09:25:52;;;;;;;;;;;19.40;40.20;;;;;;5133839;27;19924;-60
2023/03/06 09:28:21;;;;;;;;;;;19.40;40.20;;;;;;5108253;28;19974;-63
2023/03/06 09:30:48;;;;;;;;;;;19.40;40.20;;;;;;5106897;27;19989;-63
2023/03/06 09:33:15;;;;;;;;;;;19.40;40.20;;;;;;5103152;28;19928;-63
2023/03/06 09:35:46;;;;;;;;;;;19.40;40.20;;;;;;5108184;28;20022;-60
2023/03/06 09:38:13;;;;;;;;;;;19.40;40.20;;;;;;5103669;28;19954;-61
2023/03/06 09:40:42;;;;;;;;;;;19.40;40.20;;;;;;5105219;28;19953;-61
2023/03/06 09:43:10;;;;;;;;;;;19.40;40.20;;;;;;5129855;27;19924;-60
2023/03/06 09:45:37;;;;;;;;;;;19.40;40.20;;;;;;5104922;28;20012;-61
2023/03/06 09:48:03;;;;;;;;;;;19.40;40.30;;;;;;5107587;28;19924;-61
2023/03/06 09:50:31;;;;;;;;;;;19.50;40.40;;;;;;5106937;28;19926;-61
2023/03/06 09:53:15;;;;;;;;;;;19.40;40.30;;;;;;5102867;27;19920;-62
2023/03/06 09:55:43;;;;;;;;;;;19.40;40.30;;;;;;5103855;27;19926;-61
2023/03/06 09:58:11;;;;;;;;;;;19.40;40.30;;;;;;5105537;28;19924;-63
2023/03/06 10:00:38;;;;;;;;;;;19.40;40.30;;;;;;5107337;28;19932;-62
2023/03/06 10:03:10;;;;;;;;;;;19.50;40.40;;;;;;5106983;28;19928;-64
2023/03/06 10:05:38;;;;;;;;;;;19.50;40.40;;;;;;5106829;28;19932;-63
2023/03/06 10:08:06;;;;;;;;;;;19.50;40.40;;;;;;5117363;27;19928;-61
2023/03/06 10:10:35;;;;;;;;;;;19.50;40.40;;;;;;5120168;27;19920;-63
2023/03/06 10:13:05;;;;;;;;;;;19.50;40.40;;;;;;5100543;28;19927;-62
2023/03/06 10:15:32;;;;;;;;;;;19.50;40.50;;;;;;5103660;28;20327;-61
2023/03/06 10:17:59;;;;;;;;;;;19.50;40.50;;;;;;5107791;28;19920;-61
2023/03/06 10:20:26;;;;;;;;;;;19.50;40.50;;;;;;5106685;28;19945;-61
2023/03/06 10:23:05;;;;;;;;;;;19.50;40.50;;;;;;5105593;28;19924;-62
2023/03/06 10:25:35;;;;;;;;;;;19.50;40.50;;;;;;5106859;28;19923;-62
2023/03/06 10:28:02;;;;;;;;;;;19.50;40.50;;;;;;5107818;28;19927;-62
2023/03/06 10:30:33;;;;;;;;;;;19.50;40.50;;;;;;5105341;28;19924;-61
2023/03/06 10:33:00;;;;;;;;;;;19.50;40.60;;;;;;5096155;28;19928;-62
2023/03/06 10:35:28;;;;;;;;;;;19.50;40.50;;;;;;5133397;27;19930;-62
2023/03/06 10:37:59;;;;;;;;;;;19.50;40.50;;;;;;5100119;28;19920;-61
2023/03/06 10:40:28;;;;;;;;;;;19.50;40.60;;;;;;5103594;28;19928;-62
2023/03/06 10:42:55;;;;;;;;;;;19.50;40.60;;;;;;5101793;28;19946;-61
2023/03/06 10:45:21;;;;;;;;;;;19.50;40.60;;;;;;5103779;28;19926;-61
2023/03/06 10:47:50;;;;;;;;;;;19.50;40.60;;;;;;5124242;27;19927;-61
2023/03/06 10:50:23;;;;;;;;;;;19.50;40.60;;;;;;5104823;28;19920;-60
2023/03/06 10:52:58;;;;;;;;;;;19.50;40.50;;;;;;5106587;28;20023;-62
2023/03/06 10:55:26;;;;;;;;;;;19.50;40.60;;;;;;5106615;28;20358;-61
2023/03/06 10:57:53;;;;;;;;;;;19.50;40.60;;;;;;5105442;28;20308;-61
2023/03/06 11:00:23;;;;;;;;;;;19.50;40.60;;;;;;5106811;28;19924;-61
2023/03/06 11:03:05;;;;;;;;;;;19.50;40.60;;;;;;5096971;28;19924;-61
2023/03/06 11:05:31;;;;;;;;;;;19.50;40.60;;;;;;5104334;28;19924;-61
2023/03/06 11:07:59;;;;;;;;;;;19.50;40.60;;;;;;5102609;28;19967;-61
2023/03/06 11:10:26;;;;;;;;;;;19.50;40.60;;;;;;5106142;28;19930;-61
2023/03/06 11:12:57;;;;;;;;;;;19.50;40.60;;;;;;5104943;28;19920;-60
2023/03/06 11:15:24;;;;;;;;;;;19.60;40.70;;;;;;5106922;28;19945;-61
2023/03/06 11:17:52;;;;;;;;;;;19.60;40.70;;;;;;5104869;28;19920;-60
2023/03/06 11:20:21;;;;;;;;;;;19.60;40.70;;;;;;5107635;28;19920;-60
2023/03/06 11:22:48;;;;;;;;;;;19.60;40.70;;;;;;5103967;28;19938;-61
2023/03/06 11:25:15;;;;;;;;;;;19.60;40.70;;;;;;5105381;28;19946;-56
2023/03/06 11:27:42;;;;;;;;;;;19.60;40.70;;;;;;5106681;28;19919;-55
2023/03/06 11:30:11;;;;;;;;;;;19.60;40.80;;;;;;5097250;28;20455;-55
2023/03/06 11:32:40;;;;;;;;;;;19.60;40.50;;;;;;5092821;28;20062;-56
2023/03/06 11:35:09;;;;;;;;;;;19.60;40.20;;;;;;5120512;27;19924;-56
2023/03/06 11:37:40;;;;;;;;;;;19.60;39.90;;;;;;5098829;28;19978;-55
2023/03/06 11:40:12;;;;;;;;;;;19.60;39.60;;;;;;5112987;27;19927;-56
2023/03/06 11:42:39;;;;;;;;;;;19.60;39.30;;;;;;5113650;27;19955;-55
2023/03/06 11:45:17;;;;;;;;;;;19.60;39.20;;;;;;5104107;28;19967;-56
2023/03/06 11:47:44;;;;;;;;;;;19.50;38.80;;;;;;5110630;28;20326;-57
2023/03/06 11:50:16;;;;;;;;;;;19.50;38.70;;;;;;5103894;28;19928;-57
2023/03/06 11:52:46;;;;;;;;;;;19.50;38.60;;;;;;5108671;27;20399;-57
2023/03/06 11:55:16;;;;;;;;;;;19.50;38.50;;;;;;5107985;28;19920;-58
2023/03/06 11:57:44;;;;;;;;;;;19.50;38.40;;;;;;5100104;27;20018;-57
2023/03/06 12:00:15;;;;;;;;;;;19.50;38.30;;;;;;5107833;28;19928;-58
2023/03/06 12:02:57;;;;;;;;;;;19.40;38.10;;;;;;5102792;27;19931;-60
2023/03/06 12:05:30;;;;;;;;;;;19.50;38.20;;;;;;5101667;28;19920;-58
2023/03/06 12:08:00;;;;;;;;;;;19.40;38.20;;;;;;5099932;28;19963;-58
2023/03/06 12:10:28;;;;;;;;;;;19.40;38.10;;;;;;5108010;28;20323;-55
2023/03/06 12:13:10;;;;;;;;;;;19.40;38.00;;;;;;5106210;28;19927;-58
2023/03/06 12:15:52;;;;;;;;;;;19.40;37.90;;;;;;5097886;28;19951;-58
2023/03/06 12:18:22;;;;;;;;;;;19.40;37.80;;;;;;5106584;27;19934;-57
2023/03/06 12:20:55;;;;;;;;;;;19.30;37.70;;;;;;5106976;28;19959;-57
2023/03/06 12:23:26;;;;;;;;;;;19.30;37.50;;;;;;5106788;27;19932;-57
2023/03/06 12:25:53;;;;;;;;;;;19.40;37.60;;;;;;5107616;28;19938;-55
2023/03/06 12:28:24;;;;;;;;;;;19.40;37.50;;;;;;5104148;27;20346;-56
2023/03/06 12:31:03;;;;;;;;;;;19.30;37.50;;;;;;5099449;28;19923;-57
2023/03/06 12:33:31;;;;;;;;;;;19.30;37.40;;;;;;5105037;28;19924;-57
2023/03/06 12:36:00;;;;;;;;;;;19.30;37.30;;;;;;5105958;28;19996;-57
2023/03/06 12:38:41;;;;;;;;;;;19.30;37.30;;;;;;5130189;27;20310;-59
2023/03/06 12:41:14;;;;;;;;;;;19.30;37.20;;;;;;5106434;27;20370;-58
2023/03/06 12:43:56;;;;;;;;;;;19.30;37.10;;;;;;5138146;27;19920;-58
2023/03/06 12:46:23;;;;;;;;;;;19.30;37.10;;;;;;5101629;28;19920;-57
2023/03/06 12:48:53;;;;;;;;;;;19.30;37.00;;;;;;5102845;28;20026;-58
2023/03/06 12:51:20;;;;;;;;;;;19.30;37.00;;;;;;5104118;28;19920;-58
2023/03/06 12:53:47;;;;;;;;;;;19.30;37.10;;;;;;5105007;27;19919;-58
2023/03/06 12:56:15;;;;;;;;;;;19.30;37.00;;;;;;5110111;28;20296;-56
2023/03/06 12:58:49;;;;;;;;;;;19.30;37.00;;;;;;5103688;28;19989;-56
2023/03/06 13:01:18;;;;;;;;;;;19.30;37.00;;;;;;5131387;27;19920;-52
2023/03/06 13:04:00;;;;;;;;;;;19.30;36.90;;;;;;5106449;27;19931;-57
2023/03/06 13:06:30;;;;;;;;;;;19.30;36.90;;;;;;5103985;28;19927;-56
2023/03/06 13:09:03;;;;;;;;;;;19.30;36.80;;;;;;5105326;27;19919;-56
2023/03/06 13:11:35;;;;;;;;;;;19.30;36.90;;;;;;5099010;28;19924;-56
2023/03/06 13:14:12;;;;;;;;;;;19.30;36.80;;;;;;5107819;28;20048;-57
2023/03/06 13:16:39;;;;;;;;;;;19.30;36.90;;;;;;5108898;28;19969;-56
2023/03/06 13:19:11;;;;;;;;;;;19.30;36.90;;;;;;5098730;28;19920;-56
2023/03/06 13:21:44;;;;;;;;;;;19.30;36.80;;;;;;5106331;28;19980;-55
2023/03/06 13:24:16;;;;;;;;;;;19.30;36.80;;;;;;5104871;28;19920;-57
2023/03/06 13:26:51;;;;;;;;;;;19.20;36.70;;;;;;5100970;28;20409;-54
2023/03/06 13:29:36;;;;;;;;;;;19.20;36.70;;;;;;5102710;27;19930;-53
2023/03/06 13:32:07;;;;;;;;;;;19.20;36.70;;;;;;5105888;28;20319;-57
2023/03/06 13:34:34;;;;;;;;;;;19.20;36.60;;;;;;5104856;28;19924;-56
2023/03/06 13:37:18;;;;;;;;;;;19.20;36.60;;;;;;5089786;27;19959;-57
2023/03/06 13:40:06;;;;;;;;;;;19.20;36.60;;;;;;5103740;28;20285;-57
2023/03/06 13:42:35;;;;;;;;;;;19.20;36.40;;;;;;5076439;28;20289;-55
2023/03/06 13:45:05;;;;;;;;;;;19.20;36.50;;;;;;5106725;27;19919;-56
2023/03/06 13:47:33;;;;;;;;;;;19.20;36.50;;;;;;5106920;28;19924;-56
2023/03/06 13:50:01;;;;;;;;;;;19.20;36.50;;;;;;5102134;28;19928;-56
2023/03/06 13:52:32;;;;;;;;;;;19.20;36.50;;;;;;5105571;27;19924;-56
2023/03/06 13:55:00;;;;;;;;;;;19.20;36.50;;;;;;5106265;28;19977;-56
2023/03/06 13:57:32;;;;;;;;;;;19.20;36.50;;;;;;5106137;28;19993;-55
2023/03/06 14:00:19;;;;;;;;;;;19.20;36.50;;;;;;5106886;28;19924;-56
2023/03/06 14:02:54;;;;;;;;;;;19.20;36.50;;;;;;5107450;28;19934;-56
2023/03/06 14:05:21;;;;;;;;;;;19.20;36.50;;;;;;5105837;28;19920;-56
2023/03/06 14:07:48;;;;;;;;;;;19.20;36.50;;;;;;5103869;28;19934;-57
2023/03/06 14:10:19;;;;;;;;;;;19.20;36.40;;;;;;5104743;28;19976;-57
2023/03/06 14:12:56;;;;;;;;;;;19.20;36.40;;;;;;5107710;27;19935;-56
2023/03/06 14:15:24;;;;;;;;;;;19.20;36.40;;;;;;5108137;28;20259;-56
2023/03/06 14:17:56;;;;;;;;;;;19.20;36.40;;;;;;5104389;28;19931;-57
2023/03/06 14:20:26;;;;;;;;;;;19.10;36.30;;;;;;5103253;28;23060;-57
2023/03/06 14:22:53;;;;;;;;;;;19.20;36.30;;;;;;5105733;28;19930;-54